createdAt,value
2018-12-21T00:00:56.041Z,93.80
2018-12-21T00:03:24.250Z,93.80
2018-12-21T00:05:52.376Z,94.20
2018-12-21T00:08:20.591Z,93.90
2018-12-21T00:10:48.725Z,93.90
2018-12-21T00:13:16.861Z,94.00
2018-12-21T00:15:45.000Z,94.10
2018-12-21T00:18:13.082Z,94.10
2018-12-21T00:20:41.284Z,94.10
2018-12-21T00:23:09.434Z,94.10
2018-12-21T00:25:37.561Z,94.10
2018-12-21T00:28:05.640Z,94.10
2018-12-21T00:30:33.310Z,94.20
2018-12-21T00:33:07.041Z,94.30
2018-12-21T00:35:40.902Z,94.40
2018-12-21T00:38:14.493Z,94.40
2018-12-21T00:40:47.999Z,94.60
2018-12-21T00:43:52.882Z,94.60
2018-12-21T00:46:28.480Z,94.70
2018-12-21T00:48:56.621Z,94.70
2018-12-21T00:51:30.191Z,94.80
2018-12-21T00:53:55.047Z,94.80
2018-12-21T00:56:23.133Z,94.80
2018-12-21T00:58:51.335Z,94.90
2018-12-21T01:01:19.983Z,95.00
2018-12-21T01:03:48.142Z,95.00
2018-12-21T01:06:16.489Z,95.00
2018-12-21T01:08:44.817Z,95.00
2018-12-21T01:11:12.984Z,95.00
2018-12-21T01:13:41.105Z,95.10
2018-12-21T01:16:09.370Z,95.00
2018-12-21T01:18:37.535Z,95.00
2018-12-21T01:21:06.921Z,94.90
2018-12-21T01:23:35.211Z,94.70
2018-12-21T01:26:03.356Z,94.60
2018-12-21T01:28:31.530Z,94.50
2018-12-21T01:30:59.606Z,94.20
2018-12-21T01:33:27.657Z,94.20
2018-12-21T01:35:55.812Z,94.10
2018-12-21T01:38:23.986Z,94.00
2018-12-21T01:40:52.073Z,93.80
2018-12-21T01:43:20.682Z,93.80
2018-12-21T01:45:48.926Z,93.80
2018-12-21T01:48:17.072Z,93.60
2018-12-21T01:50:45.382Z,93.50
2018-12-21T01:53:13.593Z,93.50
2018-12-21T01:55:41.953Z,93.50
2018-12-21T01:58:10.019Z,93.50
2018-12-21T02:00:38.272Z,93.50
2018-12-21T02:03:06.794Z,93.40
2018-12-21T02:05:34.989Z,93.40
2018-12-21T02:08:03.148Z,93.40
2018-12-21T02:10:31.249Z,93.40
2018-12-21T02:12:59.449Z,93.30
2018-12-21T02:15:27.589Z,93.30
2018-12-21T02:17:55.707Z,93.30
2018-12-21T02:20:24.349Z,93.30
2018-12-21T02:22:52.499Z,93.20
2018-12-21T02:25:20.655Z,93.20
2018-12-21T02:27:49.067Z,93.20
2018-12-21T02:30:17.205Z,93.10
2018-12-21T02:32:45.346Z,93.10
2018-12-21T02:35:13.474Z,93.20
2018-12-21T02:37:41.625Z,93.20
2018-12-21T02:40:09.805Z,93.20
2018-12-21T02:42:38.014Z,93.40
2018-12-21T02:45:06.837Z,93.10
2018-12-21T02:47:34.960Z,93.00
2018-12-21T02:50:03.539Z,93.10
2018-12-21T02:52:31.689Z,93.00
2018-12-21T02:54:59.811Z,93.10
2018-12-21T02:57:28.175Z,93.10
2018-12-21T02:59:56.334Z,93.10
2018-12-21T03:02:24.495Z,93.00
2018-12-21T03:04:53.105Z,93.00
2018-12-21T03:07:21.331Z,93.10
2018-12-21T03:09:49.495Z,93.10
2018-12-21T03:12:17.834Z,93.10
2018-12-21T03:14:45.966Z,93.20
2018-12-21T03:17:14.091Z,93.30
2018-12-21T03:19:42.186Z,93.30
2018-12-21T03:22:14.552Z,93.80
2018-12-21T03:24:40.461Z,93.60
2018-12-21T03:27:08.717Z,93.70
2018-12-21T03:29:36.774Z,93.90
2018-12-21T03:32:05.231Z,93.90
2018-12-21T03:34:33.417Z,94.10
2018-12-21T03:37:01.667Z,94.10
2018-12-21T03:39:29.979Z,94.10
2018-12-21T03:41:58.380Z,94.30
2018-12-21T03:44:26.482Z,94.40
2018-12-21T03:46:54.981Z,94.40
2018-12-21T03:49:23.106Z,94.50
2018-12-21T03:51:51.246Z,94.40
2018-12-21T03:54:19.735Z,94.50
2018-12-21T03:56:47.946Z,94.50
2018-12-21T03:59:16.174Z,94.60
2018-12-21T04:01:44.559Z,94.60
2018-12-21T04:04:12.716Z,94.60
2018-12-21T04:06:41.913Z,94.60
2018-12-21T04:09:10.164Z,94.70
2018-12-21T04:11:38.345Z,94.70
2018-12-21T04:14:06.513Z,94.70
2018-12-21T04:16:34.916Z,95.20
2018-12-21T04:19:03.177Z,94.70
2018-12-21T04:21:31.733Z,95.00
2018-12-21T04:23:59.936Z,94.70
2018-12-21T04:26:28.061Z,94.90
2018-12-21T04:28:56.208Z,94.90
2018-12-21T04:31:24.274Z,95.00
2018-12-21T04:33:54.018Z,94.90
2018-12-21T04:36:22.174Z,95.00
2018-12-21T04:38:50.322Z,94.90
2018-12-21T04:41:18.802Z,95.10
2018-12-21T04:43:46.933Z,95.20
2018-12-21T04:46:15.265Z,95.00
2018-12-21T04:48:43.672Z,95.20
2018-12-21T04:51:11.851Z,95.20
2018-12-21T04:53:40.081Z,95.20
2018-12-21T04:56:08.250Z,95.20
2018-12-21T04:58:36.508Z,95.30
2018-12-21T05:01:04.742Z,95.40
2018-12-21T05:03:33.300Z,95.40
2018-12-21T05:06:01.414Z,95.40
2018-12-21T05:08:29.785Z,95.50
2018-12-21T05:10:57.959Z,95.40
2018-12-21T05:13:26.086Z,95.40
2018-12-21T05:15:54.233Z,95.50
2018-12-21T05:18:22.385Z,95.50
2018-12-21T05:20:50.481Z,95.50
2018-12-21T05:23:18.631Z,95.50
2018-12-21T05:25:46.961Z,95.50
2018-12-21T05:28:15.069Z,95.60
2018-12-21T05:30:43.200Z,95.60
2018-12-21T05:33:11.311Z,95.60
2018-12-21T05:35:39.449Z,95.60
2018-12-21T05:38:07.574Z,95.60
2018-12-21T05:40:36.204Z,95.50
2018-12-21T05:43:04.269Z,95.60
2018-12-21T05:45:32.396Z,95.60
2018-12-21T05:48:00.585Z,95.50
2018-12-21T05:50:28.736Z,95.60
2018-12-21T05:53:00.785Z,95.70
2018-12-21T05:55:27.151Z,95.70
2018-12-21T05:57:55.278Z,95.70
2018-12-21T06:00:23.446Z,95.70
2018-12-21T06:02:52.161Z,95.60
2018-12-21T06:05:20.287Z,95.60
2018-12-21T06:07:48.646Z,95.60
2018-12-21T06:10:17.086Z,95.70
2018-12-21T06:12:45.205Z,95.60
2018-12-21T06:15:13.541Z,95.90
2018-12-21T06:17:41.633Z,95.60
2018-12-21T06:20:09.784Z,95.60
2018-12-21T06:22:37.957Z,95.90
2018-12-21T06:25:07.007Z,95.60
2018-12-21T06:27:35.122Z,95.60
2018-12-21T06:30:04.494Z,95.60
2018-12-21T06:32:33.537Z,95.60
2018-12-21T06:35:01.702Z,95.70
2018-12-21T06:37:29.948Z,95.60
2018-12-21T06:39:58.608Z,95.60
2018-12-21T06:42:26.771Z,95.60
2018-12-21T06:44:54.897Z,95.60
2018-12-21T06:47:23.225Z,95.80
2018-12-21T06:49:51.358Z,95.70
2018-12-21T06:52:19.529Z,95.80
2018-12-21T06:54:47.721Z,95.90
2018-12-21T06:57:15.867Z,95.90
2018-12-21T06:59:43.996Z,95.90
2018-12-21T07:02:12.149Z,95.80
2018-12-21T07:04:40.338Z,95.80
2018-12-21T07:07:08.675Z,96.10
2018-12-21T07:09:37.064Z,95.60
2018-12-21T07:12:05.652Z,95.70
2018-12-21T07:14:33.839Z,95.80
2018-12-21T07:17:02.075Z,95.80
2018-12-21T07:19:30.237Z,95.90
2018-12-21T07:21:59.330Z,95.90
2018-12-21T07:24:28.232Z,96.00
2018-12-21T07:26:56.316Z,95.80
2018-12-21T07:29:24.593Z,95.90
2018-12-21T07:31:52.861Z,95.90
2018-12-21T07:34:21.009Z,95.90
2018-12-21T07:36:49.322Z,95.90
2018-12-21T07:39:17.854Z,95.90
2018-12-21T07:41:46.022Z,95.80
2018-12-21T07:44:14.166Z,95.80
2018-12-21T07:46:43.007Z,95.90
2018-12-21T07:49:11.135Z,95.80
2018-12-21T07:51:39.771Z,95.80
2018-12-21T07:54:08.252Z,95.80
2018-12-21T07:56:36.406Z,95.80
2018-12-21T07:59:04.569Z,95.90
2018-12-21T08:01:33.065Z,95.90
2018-12-21T08:04:01.471Z,95.70
2018-12-21T08:06:29.751Z,95.70
2018-12-21T08:08:57.889Z,95.60
2018-12-21T08:11:26.233Z,95.60
2018-12-21T08:13:55.404Z,95.30
2018-12-21T08:16:23.536Z,95.10
2018-12-21T08:18:51.750Z,95.00
2018-12-21T08:21:20.026Z,95.10
2018-12-21T08:23:48.670Z,94.90
2018-12-21T08:26:16.746Z,94.80
2018-12-21T08:28:45.015Z,94.70
2018-12-21T08:31:13.197Z,94.90
2018-12-21T08:33:41.365Z,95.00
2018-12-21T08:36:09.542Z,95.00
2018-12-21T08:38:38.020Z,94.90
2018-12-21T08:41:06.301Z,94.80
2018-12-21T08:43:34.376Z,94.90
2018-12-21T08:46:03.063Z,95.00
2018-12-21T08:48:31.128Z,94.80
2018-12-21T08:50:59.381Z,94.80
2018-12-21T08:53:27.532Z,95.00
2018-12-21T08:55:55.687Z,94.90
2018-12-21T08:58:23.813Z,94.90
2018-12-21T09:00:52.113Z,95.00
2018-12-21T09:03:20.273Z,94.90
2018-12-21T09:05:48.957Z,94.80
2018-12-21T09:08:17.109Z,94.70
2018-12-21T09:10:45.229Z,94.80
2018-12-21T09:13:13.374Z,94.80
2018-12-21T09:15:41.884Z,94.70
2018-12-21T09:18:10.226Z,94.50
2018-12-21T09:20:38.480Z,94.40
2018-12-21T09:23:07.121Z,94.20
2018-12-21T09:25:35.253Z,94.20
2018-12-21T09:28:03.549Z,93.90
2018-12-21T09:30:31.817Z,94.00
2018-12-21T09:32:59.978Z,93.70
2018-12-21T09:35:28.177Z,93.60
2018-12-21T09:37:56.704Z,93.30
2018-12-21T09:40:24.890Z,93.40
2018-12-21T09:42:53.487Z,93.20
2018-12-21T09:45:22.280Z,93.20
2018-12-21T09:47:50.477Z,92.90
2018-12-21T09:50:18.601Z,92.90
2018-12-21T09:52:46.773Z,92.80
2018-12-21T09:55:14.980Z,92.60
2018-12-21T09:57:43.309Z,93.00
2018-12-21T10:00:12.285Z,92.60
2018-12-21T10:02:41.104Z,92.70
2018-12-21T10:05:14.569Z,92.30
2018-12-21T10:07:42.833Z,92.40
2018-12-21T10:10:10.957Z,92.40
2018-12-21T10:12:39.126Z,92.50
2018-12-21T10:15:08.813Z,92.10
2018-12-21T10:17:37.244Z,92.00
2018-12-21T10:20:07.780Z,92.20
2018-12-21T10:22:35.917Z,92.40
2018-12-21T10:25:04.631Z,92.10
2018-12-21T10:27:32.789Z,92.10
2018-12-21T10:30:00.949Z,92.10
2018-12-21T10:32:29.141Z,92.00
2018-12-21T10:34:57.426Z,92.40
2018-12-21T10:37:25.550Z,92.00
2018-12-21T10:39:53.682Z,91.80
2018-12-21T10:42:21.917Z,91.80
2018-12-21T10:44:50.070Z,91.70
2018-12-21T10:47:18.405Z,92.00
2018-12-21T10:49:46.677Z,91.70
2018-12-21T10:52:14.754Z,91.60
2018-12-21T10:54:42.869Z,91.50
2018-12-21T10:57:10.995Z,91.70
2018-12-21T10:59:43.363Z,91.80
2018-12-21T11:02:09.422Z,91.70
2018-12-21T11:04:37.932Z,91.70
2018-12-21T11:07:06.040Z,91.80
2018-12-21T11:09:34.307Z,91.90
2018-12-21T11:12:02.430Z,91.90
2018-12-21T11:14:30.678Z,92.00
2018-12-21T11:16:58.936Z,91.90
2018-12-21T11:19:27.403Z,91.90
2018-12-21T11:21:55.509Z,91.80
2018-12-21T11:24:23.969Z,91.90
2018-12-21T11:26:52.150Z,91.80
2018-12-21T11:29:20.242Z,91.80
2018-12-21T11:31:48.585Z,91.70
2018-12-21T11:34:16.707Z,91.70
2018-12-21T11:36:44.778Z,91.60
2018-12-21T11:39:12.951Z,91.80
2018-12-21T11:41:41.086Z,91.90
2018-12-21T11:44:09.357Z,91.80
2018-12-21T11:46:37.474Z,91.80
2018-12-21T11:49:05.594Z,92.00
2018-12-21T11:51:33.693Z,91.90
2018-12-21T11:54:01.911Z,92.00
2018-12-21T11:56:30.029Z,92.10
2018-12-21T11:58:58.189Z,92.10
2018-12-21T12:01:26.337Z,92.30
2018-12-21T12:03:54.441Z,92.40
2018-12-21T12:06:22.578Z,92.40
2018-12-21T12:08:50.716Z,92.60
2018-12-21T12:11:18.862Z,92.40
2018-12-21T12:13:46.981Z,92.70
2018-12-21T12:16:15.222Z,92.70
2018-12-21T12:18:50.390Z,92.70
2018-12-21T12:21:18.766Z,92.70
2018-12-21T12:23:46.934Z,93.00
2018-12-21T12:26:15.168Z,93.00
2018-12-21T12:28:43.444Z,93.10
2018-12-21T12:31:11.592Z,93.00
2018-12-21T12:33:39.777Z,93.30
2018-12-21T12:36:07.992Z,93.20
2018-12-21T12:38:36.135Z,93.20
2018-12-21T12:41:06.749Z,93.40
2018-12-21T12:43:34.953Z,93.70
2018-12-21T12:46:03.127Z,94.00
2018-12-21T12:48:31.323Z,94.20
2018-12-21T12:50:59.570Z,94.40
2018-12-21T12:53:27.741Z,94.20
2018-12-21T12:55:55.802Z,94.30
2018-12-21T12:58:23.962Z,94.30
2018-12-21T13:00:52.071Z,94.60
2018-12-21T13:03:20.430Z,94.70
2018-12-21T13:05:48.580Z,94.70
2018-12-21T13:08:16.715Z,94.90
2018-12-21T13:10:44.845Z,95.00
2018-12-21T13:13:13.233Z,94.90
2018-12-21T13:15:41.367Z,94.90
2018-12-21T13:18:09.776Z,95.10
2018-12-21T13:20:38.489Z,95.40
2018-12-21T13:23:06.841Z,95.50
2018-12-21T13:25:34.978Z,95.50
2018-12-21T13:28:03.379Z,95.90
2018-12-21T13:30:31.518Z,95.80
2018-12-21T13:32:59.610Z,95.70
2018-12-21T13:35:27.811Z,95.80
2018-12-21T13:37:55.936Z,95.90
2018-12-21T13:40:24.208Z,95.90
2018-12-21T13:42:52.403Z,96.00
2018-12-21T13:45:20.527Z,96.00
2018-12-21T13:47:48.899Z,96.20
2018-12-21T13:50:17.217Z,96.30
2018-12-21T13:52:45.357Z,96.20
2018-12-21T13:55:20.264Z,96.40
2018-12-21T13:57:44.052Z,96.60
2018-12-21T14:00:12.210Z,96.70
2018-12-21T14:02:40.361Z,96.80
2018-12-21T14:05:08.577Z,96.70
2018-12-21T14:07:36.797Z,96.60
2018-12-21T14:10:08.378Z,96.70
2018-12-21T14:12:36.446Z,96.70
2018-12-21T14:15:05.297Z,96.80
2018-12-21T14:17:33.809Z,96.90
2018-12-21T14:20:01.951Z,96.70
2018-12-21T14:22:30.177Z,96.70
2018-12-21T14:24:58.609Z,96.70
2018-12-21T14:27:26.710Z,96.70
2018-12-21T14:29:55.597Z,96.70
2018-12-21T14:32:23.898Z,96.90
2018-12-21T14:34:52.007Z,96.90
2018-12-21T14:37:20.488Z,97.10
2018-12-21T14:39:48.647Z,97.00
2018-12-21T14:42:16.788Z,97.30
2018-12-21T14:44:44.945Z,97.40
2018-12-21T14:47:13.118Z,97.30
2018-12-21T14:49:41.313Z,97.30
2018-12-21T14:52:10.172Z,97.50
2018-12-21T14:54:38.506Z,97.50
2018-12-21T14:57:06.980Z,97.70
2018-12-21T14:59:35.647Z,98.10
2018-12-21T15:02:04.345Z,98.10
2018-12-21T15:04:32.486Z,98.30
2018-12-21T15:07:00.651Z,98.10
2018-12-21T15:09:29.427Z,98.10
2018-12-21T15:11:57.573Z,98.10
2018-12-21T15:14:25.731Z,98.20
2018-12-21T15:16:53.923Z,98.00
2018-12-21T15:19:22.229Z,98.10
2018-12-21T15:21:50.351Z,98.10
2018-12-21T15:24:18.545Z,98.00
2018-12-21T15:26:46.922Z,97.90
2018-12-21T15:29:15.121Z,97.80
2018-12-21T15:31:43.273Z,97.70
2018-12-21T15:34:12.125Z,97.80
2018-12-21T15:36:41.034Z,97.70
2018-12-21T15:39:09.465Z,97.80
2018-12-21T15:41:37.576Z,97.80
2018-12-21T15:44:06.749Z,97.80
2018-12-21T15:46:35.048Z,97.70
2018-12-21T15:49:03.249Z,97.70
2018-12-21T15:51:31.873Z,97.80
2018-12-21T15:54:00.163Z,97.80
2018-12-21T15:56:28.313Z,98.00
2018-12-21T15:58:56.514Z,97.90
2018-12-21T16:01:24.634Z,97.90
2018-12-21T16:03:52.773Z,97.90
2018-12-21T16:06:21.058Z,98.00
2018-12-21T16:08:49.272Z,98.00
2018-12-21T16:11:17.721Z,98.10
2018-12-21T16:13:45.840Z,98.10
2018-12-21T16:16:13.895Z,97.90
2018-12-21T16:18:42.041Z,98.00
2018-12-21T16:21:10.344Z,97.90
2018-12-21T16:23:38.533Z,97.90
2018-12-21T16:26:06.685Z,98.00
2018-12-21T16:28:34.959Z,97.90
2018-12-21T16:31:03.106Z,97.80
2018-12-21T16:33:31.328Z,97.80
2018-12-21T16:35:59.461Z,97.80
2018-12-21T16:38:27.480Z,97.90
2018-12-21T16:40:55.733Z,97.70
2018-12-21T16:43:24.181Z,97.90
2018-12-21T16:45:52.773Z,97.90
2018-12-21T16:48:20.849Z,98.00
2018-12-21T16:50:49.063Z,98.10
2018-12-21T16:53:17.260Z,98.10
2018-12-21T16:55:45.577Z,98.10
2018-12-21T16:58:13.837Z,98.00
2018-12-21T17:00:42.090Z,98.20
2018-12-21T17:03:15.607Z,98.20
2018-12-21T17:05:40.379Z,98.30
2018-12-21T17:08:08.474Z,98.30
2018-12-21T17:10:36.974Z,98.30
2018-12-21T17:13:05.333Z,98.30
2018-12-21T17:15:33.833Z,98.30
2018-12-21T17:18:01.884Z,98.20
2018-12-21T17:20:30.273Z,98.20
2018-12-21T17:22:58.509Z,98.10
2018-12-21T17:25:26.877Z,98.10
2018-12-21T17:27:55.332Z,98.00
2018-12-21T17:30:23.714Z,98.10
2018-12-21T17:32:51.937Z,97.90
2018-12-21T17:35:20.485Z,97.90
2018-12-21T17:37:49.529Z,98.00
2018-12-21T17:40:17.676Z,98.10
2018-12-21T17:42:45.883Z,98.10
2018-12-21T17:45:14.459Z,97.80
2018-12-21T17:47:42.535Z,97.80
2018-12-21T17:50:10.925Z,97.90
2018-12-21T17:52:39.098Z,97.90
2018-12-21T17:55:08.534Z,98.10
2018-12-21T17:57:36.758Z,97.90
2018-12-21T18:00:15.080Z,97.80
2018-12-21T18:02:44.670Z,97.70
2018-12-21T18:05:13.080Z,97.60
2018-12-21T18:07:41.150Z,97.70
2018-12-21T18:10:10.714Z,97.60
2018-12-21T18:12:38.900Z,97.70
2018-12-21T18:15:08.993Z,97.60
2018-12-21T18:17:37.121Z,97.60
2018-12-21T18:20:08.500Z,97.60
2018-12-21T18:22:36.627Z,97.60
2018-12-21T18:25:09.996Z,97.60
2018-12-21T18:27:38.128Z,97.60
2018-12-21T18:30:11.586Z,97.60
2018-12-21T18:32:40.250Z,97.60
2018-12-21T18:35:12.481Z,97.70
2018-12-21T18:37:45.383Z,97.80
2018-12-21T18:40:13.906Z,97.90
2018-12-21T18:42:41.941Z,98.00
2018-12-21T18:45:10.178Z,98.40
2018-12-21T18:47:39.128Z,98.10
2018-12-21T18:50:07.476Z,98.10
2018-12-21T18:52:35.608Z,98.00
2018-12-21T18:55:04.541Z,98.00
2018-12-21T18:57:32.680Z,98.20
2018-12-21T19:00:00.818Z,98.20
2018-12-21T19:02:29.398Z,98.30
2018-12-21T19:04:58.695Z,98.40
2018-12-21T19:07:26.866Z,98.40
2018-12-21T19:09:54.936Z,98.30
2018-12-21T19:12:23.094Z,98.20
2018-12-21T19:14:52.027Z,98.30
2018-12-21T19:17:20.282Z,98.20
2018-12-21T19:19:48.698Z,98.20
2018-12-21T19:22:16.958Z,98.10
2018-12-21T19:24:45.031Z,98.10
2018-12-21T19:27:13.198Z,98.00
2018-12-21T19:29:41.365Z,97.90
2018-12-21T19:32:09.513Z,97.80
2018-12-21T19:34:37.618Z,97.80
2018-12-21T19:37:05.848Z,97.80
2018-12-21T19:39:33.952Z,97.90
2018-12-21T19:42:02.133Z,97.80
2018-12-21T19:44:30.300Z,97.90
2018-12-21T19:46:58.488Z,97.80
2018-12-21T19:49:26.757Z,97.80
2018-12-21T19:51:54.926Z,97.90
2018-12-21T19:54:23.691Z,97.90
2018-12-21T19:57:04.556Z,98.00
2018-12-21T19:59:33.012Z,98.00
2018-12-21T20:02:01.171Z,98.00
2018-12-21T20:04:29.321Z,98.00
2018-12-21T20:06:57.510Z,98.00
2018-12-21T20:09:25.724Z,98.00
2018-12-21T20:11:53.864Z,98.00
2018-12-21T20:14:22.109Z,97.90
2018-12-21T20:16:50.230Z,97.80
2018-12-21T20:19:18.418Z,97.70
2018-12-21T20:21:46.503Z,97.50
2018-12-21T20:24:15.022Z,97.40
2018-12-21T20:26:46.230Z,97.20
2018-12-21T20:29:14.362Z,97.10
2018-12-21T20:31:42.506Z,97.10
2018-12-21T20:34:10.732Z,97.10
2018-12-21T20:36:39.458Z,97.00
2018-12-21T20:39:16.453Z,96.70
2018-12-21T20:41:44.749Z,96.60
2018-12-21T20:44:12.875Z,96.20
2018-12-21T20:46:41.037Z,95.90
2018-12-21T20:49:09.238Z,95.70
2018-12-21T20:51:37.646Z,95.50
2018-12-21T20:54:05.870Z,95.40
2018-12-21T20:56:35.096Z,95.30
2018-12-21T20:59:08.548Z,95.10
2018-12-21T21:01:36.689Z,95.10
2018-12-21T21:04:04.830Z,95.00
2018-12-21T21:06:33.035Z,94.90
2018-12-21T21:09:01.382Z,94.80
2018-12-21T21:11:29.482Z,94.60
2018-12-21T21:13:57.554Z,94.50
2018-12-21T21:16:25.974Z,94.40
2018-12-21T21:18:54.102Z,94.20
2018-12-21T21:21:22.185Z,93.70
2018-12-21T21:23:50.382Z,93.30
2018-12-21T21:26:18.505Z,92.90
2018-12-21T21:28:46.679Z,92.40
2018-12-21T21:31:16.170Z,92.50
2018-12-21T21:33:44.374Z,92.20
2018-12-21T21:36:13.117Z,92.10
2018-12-21T21:38:41.543Z,91.80
2018-12-21T21:41:09.663Z,91.40
2018-12-21T21:43:37.748Z,91.30
2018-12-21T21:46:06.120Z,91.00
2018-12-21T21:48:34.196Z,90.90
2018-12-21T21:51:02.341Z,90.70
2018-12-21T21:53:30.743Z,90.50
2018-12-21T21:55:58.913Z,90.10
2018-12-21T21:58:27.017Z,90.00
2018-12-21T22:00:55.585Z,89.90
2018-12-21T22:03:23.818Z,89.60
2018-12-21T22:05:52.015Z,89.10
2018-12-21T22:08:20.189Z,89.70
2018-12-21T22:10:48.357Z,89.20
2018-12-21T22:13:16.509Z,89.20
2018-12-21T22:15:44.837Z,89.10
2018-12-21T22:18:13.937Z,88.80
2018-12-21T22:20:42.480Z,88.80
2018-12-21T22:23:10.646Z,89.20
2018-12-21T22:25:38.873Z,89.60
2018-12-21T22:28:07.061Z,89.20
2018-12-21T22:30:35.529Z,89.70
2018-12-21T22:33:03.714Z,90.10
2018-12-21T22:35:31.874Z,90.20
2018-12-21T22:38:00.302Z,90.50
2018-12-21T22:40:28.477Z,90.70
2018-12-21T22:42:56.643Z,90.80
2018-12-21T22:45:24.769Z,91.00
2018-12-21T22:47:52.965Z,91.10
2018-12-21T22:50:21.106Z,91.40
2018-12-21T22:52:49.231Z,91.80
2018-12-21T22:55:17.717Z,92.30
2018-12-21T22:57:46.423Z,92.50
2018-12-21T23:00:25.199Z,92.70
2018-12-21T23:02:53.517Z,92.90
2018-12-21T23:05:21.676Z,93.00
2018-12-21T23:07:50.202Z,93.50
2018-12-21T23:10:18.372Z,93.50
2018-12-21T23:12:46.517Z,93.60
2018-12-21T23:15:14.737Z,93.70
2018-12-21T23:17:42.882Z,93.60
2018-12-21T23:20:11.028Z,93.60
2018-12-21T23:22:39.222Z,93.60
2018-12-21T23:25:07.348Z,93.60
2018-12-21T23:27:35.457Z,93.60
2018-12-21T23:30:04.001Z,93.50
2018-12-21T23:32:32.133Z,93.50
2018-12-21T23:35:00.246Z,93.80
2018-12-21T23:37:28.485Z,93.90
2018-12-21T23:39:56.798Z,93.90
2018-12-21T23:42:24.911Z,94.00
2018-12-21T23:44:53.148Z,93.70
2018-12-21T23:47:21.409Z,93.30
2018-12-21T23:49:49.696Z,92.90
2018-12-21T23:52:18.386Z,92.70
2018-12-21T23:54:46.522Z,92.80
2018-12-21T23:57:14.956Z,92.70
2018-12-21T23:59:43.060Z,92.80
